sensor_id;sensor_type;location;lat;lon;timestamp;P1;durP1;ratioP1;P2;durP2;ratioP2
75021;SDS011;63583;49.976;20.182;2023-02-26T00:01:39;8.60;;;3.05;;
75021;SDS011;63583;49.976;20.182;2023-02-26T00:04:06;4.32;;;3.00;;
75021;SDS011;63583;49.976;20.182;2023-02-26T00:06:37;4.90;;;3.15;;
75021;SDS011;63583;49.976;20.182;2023-02-26T00:09:04;6.38;;;3.15;;
75021;SDS011;63583;49.976;20.182;2023-02-26T00:11:30;7.93;;;3.33;;
75021;SDS011;63583;49.976;20.182;2023-02-26T00:13:56;2.90;;;1.92;;
75021;SDS011;63583;49.976;20.182;2023-02-26T00:18:57;5.70;;;3.35;;
75021;SDS011;63583;49.976;20.182;2023-02-26T00:21:24;7.00;;;3.65;;
75021;SDS011;63583;49.976;20.182;2023-02-26T00:23:51;3.95;;;2.45;;
75021;SDS011;63583;49.976;20.182;2023-02-26T00:26:17;8.93;;;3.78;;
75021;SDS011;63583;49.976;20.182;2023-02-26T00:28:44;8.63;;;4.35;;
75021;SDS011;63583;49.976;20.182;2023-02-26T00:31:10;6.53;;;3.47;;
75021;SDS011;63583;49.976;20.182;2023-02-26T00:33:36;8.00;;;3.47;;
75021;SDS011;63583;49.976;20.182;2023-02-26T00:36:04;12.30;;;4.10;;
75021;SDS011;63583;49.976;20.182;2023-02-26T00:38:45;8.70;;;3.72;;
75021;SDS011;63583;49.976;20.182;2023-02-26T00:41:25;4.32;;;2.92;;
75021;SDS011;63583;49.976;20.182;2023-02-26T00:43:51;8.55;;;3.92;;
75021;SDS011;63583;49.976;20.182;2023-02-26T00:49:02;4.93;;;3.17;;
75021;SDS011;63583;49.976;20.182;2023-02-26T00:51:55;7.57;;;4.60;;
75021;SDS011;63583;49.976;20.182;2023-02-26T00:54:27;13.93;;;4.10;;
75021;SDS011;63583;49.976;20.182;2023-02-26T00:56:56;7.50;;;3.42;;
75021;SDS011;63583;49.976;20.182;2023-02-26T00:59:23;5.25;;;3.35;;
75021;SDS011;63583;49.976;20.182;2023-02-26T01:01:50;6.78;;;2.90;;
75021;SDS011;63583;49.976;20.182;2023-02-26T01:04:18;7.00;;;3.38;;
75021;SDS011;63583;49.976;20.182;2023-02-26T01:06:47;6.35;;;2.88;;
75021;SDS011;63583;49.976;20.182;2023-02-26T01:11:59;3.60;;;2.10;;
75021;SDS011;63583;49.976;20.182;2023-02-26T01:14:28;4.35;;;2.08;;
75021;SDS011;63583;49.976;20.182;2023-02-26T01:16:58;4.68;;;2.45;;
75021;SDS011;63583;49.976;20.182;2023-02-26T01:19:32;6.63;;;2.78;;
75021;SDS011;63583;49.976;20.182;2023-02-26T01:22:21;3.85;;;2.28;;
75021;SDS011;63583;49.976;20.182;2023-02-26T01:25:03;3.72;;;1.85;;
75021;SDS011;63583;49.976;20.182;2023-02-26T01:27:31;3.83;;;2.47;;
75021;SDS011;63583;49.976;20.182;2023-02-26T01:29:58;2.85;;;2.25;;
75021;SDS011;63583;49.976;20.182;2023-02-26T01:32:25;3.15;;;1.85;;
75021;SDS011;63583;49.976;20.182;2023-02-26T01:44:14;3.88;;;2.05;;
75021;SDS011;63583;49.976;20.182;2023-02-26T01:49:29;3.92;;;2.05;;
75021;SDS011;63583;49.976;20.182;2023-02-26T01:51:59;4.10;;;2.30;;
75021;SDS011;63583;49.976;20.182;2023-02-26T01:54:51;4.35;;;2.58;;
75021;SDS011;63583;49.976;20.182;2023-02-26T01:57:17;10.88;;;3.03;;
75021;SDS011;63583;49.976;20.182;2023-02-26T01:59:46;5.68;;;2.75;;
75021;SDS011;63583;49.976;20.182;2023-02-26T02:02:19;3.05;;;2.10;;
75021;SDS011;63583;49.976;20.182;2023-02-26T02:04:46;5.15;;;3.08;;
75021;SDS011;63583;49.976;20.182;2023-02-26T02:07:14;3.03;;;2.17;;
75021;SDS011;63583;49.976;20.182;2023-02-26T02:09:40;5.60;;;3.00;;
75021;SDS011;63583;49.976;20.182;2023-02-26T02:12:13;7.28;;;3.67;;
75021;SDS011;63583;49.976;20.182;2023-02-26T02:15:13;4.80;;;2.92;;
75021;SDS011;63583;49.976;20.182;2023-02-26T02:23:25;6.32;;;2.28;;
75021;SDS011;63583;49.976;20.182;2023-02-26T02:28:58;3.65;;;1.70;;
75021;SDS011;63583;49.976;20.182;2023-02-26T02:31:56;3.90;;;1.92;;
75021;SDS011;63583;49.976;20.182;2023-02-26T02:34:33;1.63;;;1.33;;
75021;SDS011;63583;49.976;20.182;2023-02-26T02:37:05;3.70;;;2.53;;
75021;SDS011;63583;49.976;20.182;2023-02-26T02:39:45;2.28;;;1.92;;
75021;SDS011;63583;49.976;20.182;2023-02-26T02:42:24;7.10;;;1.90;;
75021;SDS011;63583;49.976;20.182;2023-02-26T02:44:57;2.65;;;1.98;;
75021;SDS011;63583;49.976;20.182;2023-02-26T02:47:26;3.17;;;2.10;;
75021;SDS011;63583;49.976;20.182;2023-02-26T02:55:06;3.90;;;2.17;;
75021;SDS011;63583;49.976;20.182;2023-02-26T02:57:37;3.47;;;2.13;;
75021;SDS011;63583;49.976;20.182;2023-02-26T03:00:27;2.60;;;1.90;;
75021;SDS011;63583;49.976;20.182;2023-02-26T03:05:30;2.65;;;1.95;;
75021;SDS011;63583;49.976;20.182;2023-02-26T03:08:01;6.78;;;2.55;;
75021;SDS011;63583;49.976;20.182;2023-02-26T03:10:31;1.27;;;0.80;;
75021;SDS011;63583;49.976;20.182;2023-02-26T03:12:57;3.05;;;1.90;;
75021;SDS011;63583;49.976;20.182;2023-02-26T03:15:46;1.52;;;1.20;;
75021;SDS011;63583;49.976;20.182;2023-02-26T03:21:18;2.47;;;1.80;;
75021;SDS011;63583;49.976;20.182;2023-02-26T03:26:46;2.60;;;1.50;;
75021;SDS011;63583;49.976;20.182;2023-02-26T03:29:24;2.15;;;1.13;;
75021;SDS011;63583;49.976;20.182;2023-02-26T03:31:58;3.70;;;1.70;;
75021;SDS011;63583;49.976;20.182;2023-02-26T03:34:40;4.18;;;1.65;;
75021;SDS011;63583;49.976;20.182;2023-02-26T03:37:19;3.13;;;1.80;;
75021;SDS011;63583;49.976;20.182;2023-02-26T03:40:58;2.72;;;1.77;;
75021;SDS011;63583;49.976;20.182;2023-02-26T03:43:17;3.70;;;2.20;;
75021;SDS011;63583;49.976;20.182;2023-02-26T03:45:48;2.60;;;1.58;;
75021;SDS011;63583;49.976;20.182;2023-02-26T03:50:46;2.28;;;2.17;;
75021;SDS011;63583;49.976;20.182;2023-02-26T03:53:15;0.98;;;0.45;;
75021;SDS011;63583;49.976;20.182;2023-02-26T03:55:49;2.13;;;1.00;;
75021;SDS011;63583;49.976;20.182;2023-02-26T03:58:21;2.33;;;1.55;;
75021;SDS011;63583;49.976;20.182;2023-02-26T04:00:49;2.08;;;1.08;;
75021;SDS011;63583;49.976;20.182;2023-02-26T04:03:35;3.80;;;1.17;;
75021;SDS011;63583;49.976;20.182;2023-02-26T04:08:52;2.38;;;0.70;;
75021;SDS011;63583;49.976;20.182;2023-02-26T04:11:19;2.90;;;1.40;;
75021;SDS011;63583;49.976;20.182;2023-02-26T04:13:46;2.03;;;1.23;;
75021;SDS011;63583;49.976;20.182;2023-02-26T04:16:12;3.03;;;1.30;;
75021;SDS011;63583;49.976;20.182;2023-02-26T04:18:38;4.85;;;1.45;;
75021;SDS011;63583;49.976;20.182;2023-02-26T04:21:05;4.28;;;1.40;;
75021;SDS011;63583;49.976;20.182;2023-02-26T04:23:31;1.17;;;1.08;;
75021;SDS011;63583;49.976;20.182;2023-02-26T04:25:57;3.25;;;0.98;;
75021;SDS011;63583;49.976;20.182;2023-02-26T04:28:23;1.67;;;0.77;;
75021;SDS011;63583;49.976;20.182;2023-02-26T04:30:48;2.78;;;1.30;;
75021;SDS011;63583;49.976;20.182;2023-02-26T04:33:14;1.67;;;0.85;;
75021;SDS011;63583;49.976;20.182;2023-02-26T04:35:40;1.25;;;0.90;;
75021;SDS011;63583;49.976;20.182;2023-02-26T04:38:07;1.05;;;0.70;;
75021;SDS011;63583;49.976;20.182;2023-02-26T04:40:32;1.17;;;0.77;;
75021;SDS011;63583;49.976;20.182;2023-02-26T04:42:58;1.60;;;1.23;;
75021;SDS011;63583;49.976;20.182;2023-02-26T04:45:24;2.45;;;1.48;;
75021;SDS011;63583;49.976;20.182;2023-02-26T04:47:49;3.33;;;0.90;;
75021;SDS011;63583;49.976;20.182;2023-02-26T04:50:15;2.28;;;1.20;;
75021;SDS011;63583;49.976;20.182;2023-02-26T04:52:41;1.88;;;1.20;;
75021;SDS011;63583;49.976;20.182;2023-02-26T04:55:07;2.88;;;1.63;;
75021;SDS011;63583;49.976;20.182;2023-02-26T04:57:33;1.95;;;0.95;;
75021;SDS011;63583;49.976;20.182;2023-02-26T04:59:59;3.50;;;2.38;;
75021;SDS011;63583;49.976;20.182;2023-02-26T05:02:24;2.70;;;1.25;;
75021;SDS011;63583;49.976;20.182;2023-02-26T05:04:50;1.10;;;0.70;;
75021;SDS011;63583;49.976;20.182;2023-02-26T05:07:16;1.63;;;1.25;;
75021;SDS011;63583;49.976;20.182;2023-02-26T05:09:41;2.63;;;1.42;;
75021;SDS011;63583;49.976;20.182;2023-02-26T05:12:08;3.22;;;1.58;;
75021;SDS011;63583;49.976;20.182;2023-02-26T05:14:33;2.13;;;1.00;;
75021;SDS011;63583;49.976;20.182;2023-02-26T05:16:59;0.50;;;0.50;;
75021;SDS011;63583;49.976;20.182;2023-02-26T05:19:24;1.75;;;1.27;;
75021;SDS011;63583;49.976;20.182;2023-02-26T05:21:50;2.03;;;1.00;;
75021;SDS011;63583;49.976;20.182;2023-02-26T05:24:16;1.27;;;0.90;;
75021;SDS011;63583;49.976;20.182;2023-02-26T05:26:42;1.88;;;1.10;;
75021;SDS011;63583;49.976;20.182;2023-02-26T05:29:07;2.10;;;1.77;;
75021;SDS011;63583;49.976;20.182;2023-02-26T05:31:33;0.90;;;0.80;;
75021;SDS011;63583;49.976;20.182;2023-02-26T05:33:59;3.40;;;1.25;;
75021;SDS011;63583;49.976;20.182;2023-02-26T05:36:24;1.90;;;1.45;;
75021;SDS011;63583;49.976;20.182;2023-02-26T05:38:50;1.40;;;1.13;;
75021;SDS011;63583;49.976;20.182;2023-02-26T05:41:16;2.15;;;1.17;;
75021;SDS011;63583;49.976;20.182;2023-02-26T05:43:42;2.53;;;1.40;;
75021;SDS011;63583;49.976;20.182;2023-02-26T05:46:08;3.40;;;1.23;;
75021;SDS011;63583;49.976;20.182;2023-02-26T05:48:33;0.73;;;0.68;;
75021;SDS011;63583;49.976;20.182;2023-02-26T05:50:59;5.65;;;1.35;;
75021;SDS011;63583;49.976;20.182;2023-02-26T05:53:25;3.72;;;1.17;;
75021;SDS011;63583;49.976;20.182;2023-02-26T05:55:51;1.20;;;0.63;;
75021;SDS011;63583;49.976;20.182;2023-02-26T05:58:18;1.55;;;0.95;;
75021;SDS011;63583;49.976;20.182;2023-02-26T06:00:44;1.27;;;0.60;;
75021;SDS011;63583;49.976;20.182;2023-02-26T06:03:10;1.92;;;1.08;;
75021;SDS011;63583;49.976;20.182;2023-02-26T06:05:36;1.42;;;0.77;;
75021;SDS011;63583;49.976;20.182;2023-02-26T06:08:02;1.10;;;0.65;;
75021;SDS011;63583;49.976;20.182;2023-02-26T06:10:30;3.58;;;1.33;;
75021;SDS011;63583;49.976;20.182;2023-02-26T06:12:56;1.50;;;0.57;;
75021;SDS011;63583;49.976;20.182;2023-02-26T06:15:22;2.58;;;1.05;;
75021;SDS011;63583;49.976;20.182;2023-02-26T06:17:47;1.73;;;1.20;;
75021;SDS011;63583;49.976;20.182;2023-02-26T06:20:13;1.77;;;0.82;;
75021;SDS011;63583;49.976;20.182;2023-02-26T06:22:39;2.83;;;1.83;;
75021;SDS011;63583;49.976;20.182;2023-02-26T06:25:05;1.75;;;0.82;;
75021;SDS011;63583;49.976;20.182;2023-02-26T06:27:31;1.52;;;1.05;;
75021;SDS011;63583;49.976;20.182;2023-02-26T06:29:57;1.42;;;1.05;;
75021;SDS011;63583;49.976;20.182;2023-02-26T06:32:22;1.40;;;0.93;;
75021;SDS011;63583;49.976;20.182;2023-02-26T06:34:48;1.52;;;1.23;;
75021;SDS011;63583;49.976;20.182;2023-02-26T06:37:14;2.53;;;1.15;;
75021;SDS011;63583;49.976;20.182;2023-02-26T06:39:40;0.57;;;0.40;;
75021;SDS011;63583;49.976;20.182;2023-02-26T06:42:06;2.38;;;1.20;;
75021;SDS011;63583;49.976;20.182;2023-02-26T06:44:32;2.55;;;1.27;;
75021;SDS011;63583;49.976;20.182;2023-02-26T06:46:58;2.05;;;1.17;;
75021;SDS011;63583;49.976;20.182;2023-02-26T06:49:23;1.98;;;1.10;;
75021;SDS011;63583;49.976;20.182;2023-02-26T06:51:49;2.63;;;1.08;;
75021;SDS011;63583;49.976;20.182;2023-02-26T06:54:15;1.50;;;1.02;;
75021;SDS011;63583;49.976;20.182;2023-02-26T06:56:40;1.08;;;0.70;;
75021;SDS011;63583;49.976;20.182;2023-02-26T06:59:06;2.65;;;1.00;;
75021;SDS011;63583;49.976;20.182;2023-02-26T07:01:32;2.42;;;0.95;;
75021;SDS011;63583;49.976;20.182;2023-02-26T07:03:58;3.70;;;1.35;;
75021;SDS011;63583;49.976;20.182;2023-02-26T07:06:23;4.13;;;2.25;;
75021;SDS011;63583;49.976;20.182;2023-02-26T07:08:49;2.97;;;1.67;;
75021;SDS011;63583;49.976;20.182;2023-02-26T07:11:14;3.03;;;1.83;;
75021;SDS011;63583;49.976;20.182;2023-02-26T07:13:41;1.52;;;0.82;;
75021;SDS011;63583;49.976;20.182;2023-02-26T07:16:07;4.57;;;1.55;;
75021;SDS011;63583;49.976;20.182;2023-02-26T07:18:34;1.77;;;0.90;;
75021;SDS011;63583;49.976;20.182;2023-02-26T07:21:00;3.33;;;1.10;;
75021;SDS011;63583;49.976;20.182;2023-02-26T07:23:27;2.25;;;1.42;;
75021;SDS011;63583;49.976;20.182;2023-02-26T07:25:53;3.10;;;1.48;;
75021;SDS011;63583;49.976;20.182;2023-02-26T07:28:19;3.83;;;0.77;;
75021;SDS011;63583;49.976;20.182;2023-02-26T07:30:45;2.20;;;1.10;;
75021;SDS011;63583;49.976;20.182;2023-02-26T07:33:11;2.30;;;1.17;;
75021;SDS011;63583;49.976;20.182;2023-02-26T07:35:37;3.90;;;1.35;;
75021;SDS011;63583;49.976;20.182;2023-02-26T07:38:04;1.52;;;1.13;;
75021;SDS011;63583;49.976;20.182;2023-02-26T07:40:30;5.03;;;1.40;;
75021;SDS011;63583;49.976;20.182;2023-02-26T07:42:55;2.42;;;1.48;;
75021;SDS011;63583;49.976;20.182;2023-02-26T07:45:21;4.63;;;1.63;;
75021;SDS011;63583;49.976;20.182;2023-02-26T07:47:50;5.78;;;2.08;;
75021;SDS011;63583;49.976;20.182;2023-02-26T07:52:43;1.42;;;1.30;;
75021;SDS011;63583;49.976;20.182;2023-02-26T07:55:08;2.40;;;1.13;;
75021;SDS011;63583;49.976;20.182;2023-02-26T07:57:34;4.38;;;1.17;;
75021;SDS011;63583;49.976;20.182;2023-02-26T08:00:00;3.13;;;1.65;;
75021;SDS011;63583;49.976;20.182;2023-02-26T08:02:26;3.05;;;1.88;;
75021;SDS011;63583;49.976;20.182;2023-02-26T08:04:52;2.15;;;1.40;;
75021;SDS011;63583;49.976;20.182;2023-02-26T08:07:18;4.22;;;2.22;;
75021;SDS011;63583;49.976;20.182;2023-02-26T08:09:44;2.42;;;1.45;;
75021;SDS011;63583;49.976;20.182;2023-02-26T08:12:09;3.33;;;1.35;;
75021;SDS011;63583;49.976;20.182;2023-02-26T08:14:35;4.40;;;2.13;;
75021;SDS011;63583;49.976;20.182;2023-02-26T08:17:01;1.63;;;0.90;;
75021;SDS011;63583;49.976;20.182;2023-02-26T08:19:26;3.83;;;1.67;;
75021;SDS011;63583;49.976;20.182;2023-02-26T08:21:52;1.92;;;1.00;;
75021;SDS011;63583;49.976;20.182;2023-02-26T08:24:19;1.45;;;0.82;;
75021;SDS011;63583;49.976;20.182;2023-02-26T08:26:46;2.03;;;1.38;;
75021;SDS011;63583;49.976;20.182;2023-02-26T08:29:11;6.22;;;2.65;;
75021;SDS011;63583;49.976;20.182;2023-02-26T08:31:37;2.42;;;1.17;;
75021;SDS011;63583;49.976;20.182;2023-02-26T08:34:03;1.52;;;1.15;;
75021;SDS011;63583;49.976;20.182;2023-02-26T08:36:30;1.92;;;1.17;;
75021;SDS011;63583;49.976;20.182;2023-02-26T08:38:55;1.33;;;1.15;;
75021;SDS011;63583;49.976;20.182;2023-02-26T08:41:23;3.25;;;0.90;;
75021;SDS011;63583;49.976;20.182;2023-02-26T08:43:51;2.63;;;1.52;;
75021;SDS011;63583;49.976;20.182;2023-02-26T08:46:17;0.88;;;0.60;;
75021;SDS011;63583;49.976;20.182;2023-02-26T08:48:43;1.63;;;0.80;;
75021;SDS011;63583;49.976;20.182;2023-02-26T08:51:09;1.70;;;0.88;;
75021;SDS011;63583;49.976;20.182;2023-02-26T08:53:34;3.05;;;1.15;;
75021;SDS011;63583;49.976;20.182;2023-02-26T08:56:00;2.30;;;1.40;;
75021;SDS011;63583;49.976;20.182;2023-02-26T08:58:26;3.65;;;1.73;;
75021;SDS011;63583;49.976;20.182;2023-02-26T09:00:52;1.25;;;0.77;;
75021;SDS011;63583;49.976;20.182;2023-02-26T09:03:18;1.55;;;0.80;;
75021;SDS011;63583;49.976;20.182;2023-02-26T09:05:44;0.45;;;0.40;;
75021;SDS011;63583;49.976;20.182;2023-02-26T09:08:10;2.13;;;1.08;;
75021;SDS011;63583;49.976;20.182;2023-02-26T09:10:39;1.67;;;1.17;;
75021;SDS011;63583;49.976;20.182;2023-02-26T09:13:05;1.45;;;0.88;;
75021;SDS011;63583;49.976;20.182;2023-02-26T09:15:31;1.77;;;0.98;;
75021;SDS011;63583;49.976;20.182;2023-02-26T09:17:56;2.15;;;1.02;;
75021;SDS011;63583;49.976;20.182;2023-02-26T09:20:22;3.45;;;1.20;;
75021;SDS011;63583;49.976;20.182;2023-02-26T09:22:48;3.95;;;1.33;;
75021;SDS011;63583;49.976;20.182;2023-02-26T09:25:13;1.75;;;1.25;;
75021;SDS011;63583;49.976;20.182;2023-02-26T09:27:39;4.35;;;1.80;;
75021;SDS011;63583;49.976;20.182;2023-02-26T09:30:05;1.88;;;1.20;;
75021;SDS011;63583;49.976;20.182;2023-02-26T09:32:31;2.03;;;1.08;;
75021;SDS011;63583;49.976;20.182;2023-02-26T09:34:57;1.88;;;1.45;;
75021;SDS011;63583;49.976;20.182;2023-02-26T09:37:23;9.00;;;1.38;;
75021;SDS011;63583;49.976;20.182;2023-02-26T09:39:49;1.35;;;0.93;;
75021;SDS011;63583;49.976;20.182;2023-02-26T09:42:34;5.32;;;2.17;;
75021;SDS011;63583;49.976;20.182;2023-02-26T09:45:09;3.55;;;1.50;;
75021;SDS011;63583;49.976;20.182;2023-02-26T09:47:43;3.67;;;1.83;;
75021;SDS011;63583;49.976;20.182;2023-02-26T09:50:27;2.40;;;1.30;;
75021;SDS011;63583;49.976;20.182;2023-02-26T09:53:16;1.15;;;1.05;;
75021;SDS011;63583;49.976;20.182;2023-02-26T09:55:47;1.35;;;0.95;;
75021;SDS011;63583;49.976;20.182;2023-02-26T10:06:16;0.65;;;0.65;;
75021;SDS011;63583;49.976;20.182;2023-02-26T10:08:50;1.50;;;0.95;;
75021;SDS011;63583;49.976;20.182;2023-02-26T10:11:44;1.40;;;0.85;;
75021;SDS011;63583;49.976;20.182;2023-02-26T10:14:11;0.68;;;0.57;;
75021;SDS011;63583;49.976;20.182;2023-02-26T10:16:48;1.70;;;1.20;;
75021;SDS011;63583;49.976;20.182;2023-02-26T10:19:18;0.70;;;0.68;;
75021;SDS011;63583;49.976;20.182;2023-02-26T10:21:52;2.72;;;1.35;;
75021;SDS011;63583;49.976;20.182;2023-02-26T10:24:23;5.57;;;1.15;;
75021;SDS011;63583;49.976;20.182;2023-02-26T10:27:06;1.90;;;0.95;;
75021;SDS011;63583;49.976;20.182;2023-02-26T10:29:48;1.83;;;0.98;;
75021;SDS011;63583;49.976;20.182;2023-02-26T10:35:26;0.88;;;0.70;;
75021;SDS011;63583;49.976;20.182;2023-02-26T10:37:59;1.58;;;0.98;;
75021;SDS011;63583;49.976;20.182;2023-02-26T10:40:31;1.45;;;1.02;;
75021;SDS011;63583;49.976;20.182;2023-02-26T10:43:13;2.38;;;1.10;;
75021;SDS011;63583;49.976;20.182;2023-02-26T10:51:22;1.10;;;1.00;;
75021;SDS011;63583;49.976;20.182;2023-02-26T10:53:56;2.10;;;1.08;;
75021;SDS011;63583;49.976;20.182;2023-02-26T10:56:31;5.95;;;1.85;;
75021;SDS011;63583;49.976;20.182;2023-02-26T10:58:57;2.28;;;1.00;;
75021;SDS011;63583;49.976;20.182;2023-02-26T11:01:25;3.60;;;1.20;;
75021;SDS011;63583;49.976;20.182;2023-02-26T11:04:10;1.38;;;0.82;;
75021;SDS011;63583;49.976;20.182;2023-02-26T11:06:52;1.88;;;0.80;;
75021;SDS011;63583;49.976;20.182;2023-02-26T11:09:26;1.75;;;1.15;;
75021;SDS011;63583;49.976;20.182;2023-02-26T11:12:15;4.72;;;1.88;;
75021;SDS011;63583;49.976;20.182;2023-02-26T11:14:41;2.10;;;1.50;;
75021;SDS011;63583;49.976;20.182;2023-02-26T11:17:13;2.50;;;1.42;;
75021;SDS011;63583;49.976;20.182;2023-02-26T11:22:14;1.38;;;0.65;;
75021;SDS011;63583;49.976;20.182;2023-02-26T11:24:43;4.38;;;1.00;;
75021;SDS011;63583;49.976;20.182;2023-02-26T11:27:21;2.95;;;0.98;;
75021;SDS011;63583;49.976;20.182;2023-02-26T11:29:55;2.25;;;1.00;;
75021;SDS011;63583;49.976;20.182;2023-02-26T11:32:31;1.65;;;0.73;;
75021;SDS011;63583;49.976;20.182;2023-02-26T11:34:58;3.60;;;1.00;;
75021;SDS011;63583;49.976;20.182;2023-02-26T11:37:27;2.75;;;1.20;;
75021;SDS011;63583;49.976;20.182;2023-02-26T11:39:59;0.63;;;0.57;;
75021;SDS011;63583;49.976;20.182;2023-02-26T11:42:40;2.75;;;1.30;;
75021;SDS011;63583;49.976;20.182;2023-02-26T11:45:13;1.17;;;0.77;;
75021;SDS011;63583;49.976;20.182;2023-02-26T11:47:42;2.63;;;1.30;;
75021;SDS011;63583;49.976;20.182;2023-02-26T11:50:18;1.90;;;1.33;;
75021;SDS011;63583;49.976;20.182;2023-02-26T11:52:50;1.67;;;0.85;;
75021;SDS011;63583;49.976;20.182;2023-02-26T11:55:33;1.48;;;0.95;;
75021;SDS011;63583;49.976;20.182;2023-02-26T11:58:03;0.88;;;0.88;;
75021;SDS011;63583;49.976;20.182;2023-02-26T12:00:39;2.08;;;1.00;;
75021;SDS011;63583;49.976;20.182;2023-02-26T12:03:06;1.92;;;0.70;;
75021;SDS011;63583;49.976;20.182;2023-02-26T12:05:35;1.33;;;0.75;;
75021;SDS011;63583;49.976;20.182;2023-02-26T12:08:04;4.68;;;1.48;;
75021;SDS011;63583;49.976;20.182;2023-02-26T12:11:03;3.25;;;1.35;;
75021;SDS011;63583;49.976;20.182;2023-02-26T12:26:52;2.60;;;1.02;;
75021;SDS011;63583;49.976;20.182;2023-02-26T12:29:36;2.45;;;0.85;;
75021;SDS011;63583;49.976;20.182;2023-02-26T12:32:19;2.75;;;1.23;;
75021;SDS011;63583;49.976;20.182;2023-02-26T12:38:15;1.30;;;0.90;;
75021;SDS011;63583;49.976;20.182;2023-02-26T12:43:49;1.65;;;0.82;;
75021;SDS011;63583;49.976;20.182;2023-02-26T12:49:22;3.22;;;1.20;;
75021;SDS011;63583;49.976;20.182;2023-02-26T13:00:09;1.98;;;1.17;;
75021;SDS011;63583;49.976;20.182;2023-02-26T13:07:55;3.13;;;2.05;;
75021;SDS011;63583;49.976;20.182;2023-02-26T13:10:54;4.18;;;1.30;;
75021;SDS011;63583;49.976;20.182;2023-02-26T13:13:52;0.47;;;0.45;;
75021;SDS011;63583;49.976;20.182;2023-02-26T13:16:30;1.88;;;1.50;;
75021;SDS011;63583;49.976;20.182;2023-02-26T13:22:23;1.50;;;1.05;;
75021;SDS011;63583;49.976;20.182;2023-02-26T13:24:56;3.03;;;1.52;;
75021;SDS011;63583;49.976;20.182;2023-02-26T13:27:25;1.35;;;1.10;;
75021;SDS011;63583;49.976;20.182;2023-02-26T13:32:38;3.42;;;1.75;;
75021;SDS011;63583;49.976;20.182;2023-02-26T13:35:15;4.45;;;1.80;;
75021;SDS011;63583;49.976;20.182;2023-02-26T13:37:49;2.05;;;1.35;;
75021;SDS011;63583;49.976;20.182;2023-02-26T13:54:07;1.15;;;0.82;;
75021;SDS011;63583;49.976;20.182;2023-02-26T14:02:57;2.97;;;1.58;;
75021;SDS011;63583;49.976;20.182;2023-02-26T14:10:43;2.42;;;1.30;;
75021;SDS011;63583;49.976;20.182;2023-02-26T14:13:21;3.92;;;1.58;;
75021;SDS011;63583;49.976;20.182;2023-02-26T14:16:12;1.98;;;1.45;;
75021;SDS011;63583;49.976;20.182;2023-02-26T14:23:49;4.13;;;0.98;;
75021;SDS011;63583;49.976;20.182;2023-02-26T14:26:20;3.08;;;1.45;;
75021;SDS011;63583;49.976;20.182;2023-02-26T14:28:54;1.17;;;0.93;;
75021;SDS011;63583;49.976;20.182;2023-02-26T14:34:07;5.07;;;2.17;;
75021;SDS011;63583;49.976;20.182;2023-02-26T14:36:45;3.42;;;1.20;;
75021;SDS011;63583;49.976;20.182;2023-02-26T14:42:42;1.88;;;1.05;;
75021;SDS011;63583;49.976;20.182;2023-02-26T14:47:52;3.40;;;1.30;;
75021;SDS011;63583;49.976;20.182;2023-02-26T14:50:19;2.25;;;1.00;;
75021;SDS011;63583;49.976;20.182;2023-02-26T14:55:38;1.70;;;0.75;;
75021;SDS011;63583;49.976;20.182;2023-02-26T15:04:19;4.78;;;1.17;;
75021;SDS011;63583;49.976;20.182;2023-02-26T15:07:10;1.38;;;0.88;;
75021;SDS011;63583;49.976;20.182;2023-02-26T15:12:14;1.75;;;0.95;;
75021;SDS011;63583;49.976;20.182;2023-02-26T15:17:55;3.45;;;1.38;;
75021;SDS011;63583;49.976;20.182;2023-02-26T15:20:42;2.47;;;1.13;;
75021;SDS011;63583;49.976;20.182;2023-02-26T15:23:27;2.17;;;1.25;;
75021;SDS011;63583;49.976;20.182;2023-02-26T15:25:56;1.45;;;0.80;;
75021;SDS011;63583;49.976;20.182;2023-02-26T15:28:28;1.23;;;0.85;;
75021;SDS011;63583;49.976;20.182;2023-02-26T15:30:58;2.05;;;1.23;;
75021;SDS011;63583;49.976;20.182;2023-02-26T15:33:26;0.85;;;0.50;;
75021;SDS011;63583;49.976;20.182;2023-02-26T15:35:54;5.20;;;3.08;;
75021;SDS011;63583;49.976;20.182;2023-02-26T15:38:20;2.90;;;1.70;;
75021;SDS011;63583;49.976;20.182;2023-02-26T15:40:48;2.08;;;1.30;;
75021;SDS011;63583;49.976;20.182;2023-02-26T15:43:18;5.57;;;1.90;;
75021;SDS011;63583;49.976;20.182;2023-02-26T15:45:47;1.75;;;1.08;;
75021;SDS011;63583;49.976;20.182;2023-02-26T15:48:17;3.53;;;2.08;;
75021;SDS011;63583;49.976;20.182;2023-02-26T15:50:56;1.73;;;0.82;;
75021;SDS011;63583;49.976;20.182;2023-02-26T15:55:56;5.55;;;1.73;;
75021;SDS011;63583;49.976;20.182;2023-02-26T15:58:30;2.20;;;1.27;;
75021;SDS011;63583;49.976;20.182;2023-02-26T16:01:00;1.85;;;1.05;;
75021;SDS011;63583;49.976;20.182;2023-02-26T16:03:32;2.17;;;1.02;;
75021;SDS011;63583;49.976;20.182;2023-02-26T16:06:00;2.13;;;1.40;;
75021;SDS011;63583;49.976;20.182;2023-02-26T16:08:25;2.05;;;1.25;;
75021;SDS011;63583;49.976;20.182;2023-02-26T16:10:53;2.72;;;2.03;;
75021;SDS011;63583;49.976;20.182;2023-02-26T16:13:24;3.47;;;1.92;;
75021;SDS011;63583;49.976;20.182;2023-02-26T16:16:38;4.60;;;1.50;;
75021;SDS011;63583;49.976;20.182;2023-02-26T16:19:00;1.52;;;0.88;;
75021;SDS011;63583;49.976;20.182;2023-02-26T16:21:33;7.78;;;3.03;;
75021;SDS011;63583;49.976;20.182;2023-02-26T16:24:03;4.18;;;1.90;;
75021;SDS011;63583;49.976;20.182;2023-02-26T16:26:32;3.42;;;1.50;;
75021;SDS011;63583;49.976;20.182;2023-02-26T16:29:09;3.33;;;1.95;;
75021;SDS011;63583;49.976;20.182;2023-02-26T16:31:50;3.05;;;1.55;;
75021;SDS011;63583;49.976;20.182;2023-02-26T16:34:29;6.78;;;1.65;;
75021;SDS011;63583;49.976;20.182;2023-02-26T16:37:19;3.33;;;1.80;;
75021;SDS011;63583;49.976;20.182;2023-02-26T16:39:53;3.20;;;1.67;;
75021;SDS011;63583;49.976;20.182;2023-02-26T16:46:00;3.95;;;1.77;;
75021;SDS011;63583;49.976;20.182;2023-02-26T16:48:04;4.95;;;2.70;;
75021;SDS011;63583;49.976;20.182;2023-02-26T16:50:36;5.72;;;2.63;;
75021;SDS011;63583;49.976;20.182;2023-02-26T16:55:28;3.28;;;2.10;;
75021;SDS011;63583;49.976;20.182;2023-02-26T16:57:56;3.95;;;2.00;;
75021;SDS011;63583;49.976;20.182;2023-02-26T17:00:23;3.17;;;1.50;;
75021;SDS011;63583;49.976;20.182;2023-02-26T17:05:38;6.25;;;1.45;;
75021;SDS011;63583;49.976;20.182;2023-02-26T17:08:18;2.95;;;2.35;;
75021;SDS011;63583;49.976;20.182;2023-02-26T17:13:32;3.22;;;1.08;;
75021;SDS011;63583;49.976;20.182;2023-02-26T17:16:02;3.28;;;1.55;;
75021;SDS011;63583;49.976;20.182;2023-02-26T17:18:31;2.33;;;1.30;;
75021;SDS011;63583;49.976;20.182;2023-02-26T17:20:57;1.08;;;0.70;;
75021;SDS011;63583;49.976;20.182;2023-02-26T17:23:27;4.07;;;1.83;;
75021;SDS011;63583;49.976;20.182;2023-02-26T17:25:55;3.17;;;1.60;;
75021;SDS011;63583;49.976;20.182;2023-02-26T17:28:23;1.35;;;0.88;;
75021;SDS011;63583;49.976;20.182;2023-02-26T17:30:54;5.22;;;2.40;;
75021;SDS011;63583;49.976;20.182;2023-02-26T17:33:20;2.03;;;1.25;;
75021;SDS011;63583;49.976;20.182;2023-02-26T17:35:46;3.78;;;1.48;;
75021;SDS011;63583;49.976;20.182;2023-02-26T17:38:13;3.50;;;1.90;;
75021;SDS011;63583;49.976;20.182;2023-02-26T17:40:41;2.70;;;1.83;;
75021;SDS011;63583;49.976;20.182;2023-02-26T17:43:09;4.82;;;2.15;;
75021;SDS011;63583;49.976;20.182;2023-02-26T17:45:36;1.77;;;0.70;;
75021;SDS011;63583;49.976;20.182;2023-02-26T17:48:07;5.93;;;2.63;;
75021;SDS011;63583;49.976;20.182;2023-02-26T17:50:49;6.32;;;3.10;;
75021;SDS011;63583;49.976;20.182;2023-02-26T17:53:20;5.43;;;1.95;;